Time;durP1;ratioP1;P1;durP2;ratioP2;P2;SDS_P1;SDS_P2;PMS_P1;PMS_P2;Temp;Humidity;BMP_temperature;BMP_pressure;BME280_temperature;BME280_humidity;BME280_pressure;Samples;Min_cycle;Max_cycle;Signal;HPM_P1;HPM_P2
2022/10/04 00:02:22;;;;;;;5.70;1.33;;;;;;;;;;5016336;28;20030;-72
2022/10/04 00:04:56;;;;;;;1.77;1.35;;;;;;;;;;5016226;28;20030;-72
2022/10/04 00:07:27;;;;;;;1.88;1.30;;;;;;;;;;5016019;28;20026;-72
2022/10/04 00:09:54;;;;;;;;;;;;;;;;;;5016819;28;20025;-72
2022/10/04 00:12:28;;;;;;;2.15;1.10;;;;;;;;;;5029040;28;19921;-72
2022/10/04 00:14:57;;;;;;;3.28;1.40;;;;;;;;;;5035983;28;20486;-72
2022/10/04 00:17:26;;;;;;;3.45;1.48;;;;;;;;;;5035707;28;20069;-72
2022/10/04 00:19:53;;;;;;;3.45;1.20;;;;;;;;;;5035603;28;20035;-72
2022/10/04 00:22:23;;;;;;;2.97;1.40;;;;;;;;;;5035816;28;20028;-72
2022/10/04 00:25:01;;;;;;;2.78;1.25;;;;;;;;;;5036058;28;20029;-72
2022/10/04 00:27:28;;;;;;;6.20;1.90;;;;;;;;;;5035533;28;20021;-72
2022/10/04 00:30:03;;;;;;;2.22;1.20;;;;;;;;;;5035731;28;20033;-72
2022/10/04 00:32:31;;;;;;;2.55;1.10;;;;;;;;;;5035461;28;20391;-72
2022/10/04 00:34:58;;;;;;;3.15;1.98;;;;;;;;;;5035426;28;20028;-73
2022/10/04 00:37:26;;;;;;;1.25;1.00;;;;;;;;;;5035861;28;20074;-72
2022/10/04 00:40:04;;;;;;;2.85;1.42;;;;;;;;;;5035668;28;20031;-71
2022/10/04 00:42:36;;;;;;;2.85;1.52;;;;;;;;;;5035463;28;20024;-72
2022/10/04 00:45:07;;;;;;;3.58;1.40;;;;;;;;;;5035472;28;20021;-72
2022/10/04 00:47:48;;;;;;;3.10;1.30;;;;;;;;;;5035238;28;20018;-72
2022/10/04 00:50:20;;;;;;;2.42;1.20;;;;;;;;;;5035094;28;20059;-72
2022/10/04 00:52:53;;;;;;;4.55;1.25;;;;;;;;;;5035251;28;20543;-71
2022/10/04 00:55:25;;;;;;;2.85;1.20;;;;;;;;;;5034129;28;20022;-72
2022/10/04 00:57:58;;;;;;;2.67;1.27;;;;;;;;;;5035161;28;20444;-71
2022/10/04 01:00:25;;;;;;;12.15;2.00;;;;;;;;;;5035160;28;20026;-72
2022/10/04 01:03:05;;;;;;;3.25;1.60;;;;;;;;;;5035001;28;20036;-72
2022/10/04 01:05:34;;;;;;;2.40;1.55;;;;;;;;;;5034630;28;20040;-71
2022/10/04 01:08:03;;;;;;;4.13;1.70;;;;;;;;;;5034890;28;20482;-72
2022/10/04 01:10:29;;;;;;;4.70;1.58;;;;;;;;;;5034960;28;20382;-72
2022/10/04 01:13:05;;;;;;;2.13;1.40;;;;;;;;;;5034508;28;20042;-72
2022/10/04 01:15:36;;;;;;;8.32;1.85;;;;;;;;;;5034862;28;20029;-73
2022/10/04 01:18:25;;;;;;;1.90;1.38;;;;;;;;;;5034506;28;20021;-72
2022/10/04 01:20:57;;;;;;;5.80;1.15;;;;;;;;;;5031639;28;20037;-71
2022/10/04 01:23:40;;;;;;;2.55;1.35;;;;;;;;;;5034869;28;20029;-72
2022/10/04 01:26:31;;;;;;;6.30;1.60;;;;;;;;;;5034439;28;20013;-72
2022/10/04 01:28:59;;;;;;;2.47;1.40;;;;;;;;;;5034369;28;20360;-72
2022/10/04 01:31:26;;;;;;;3.78;1.60;;;;;;;;;;5034650;28;20037;-72
2022/10/04 01:33:53;;;;;;;2.28;1.55;;;;;;;;;;5033968;28;20041;-72
2022/10/04 01:36:19;;;;;;;2.60;1.55;;;;;;;;;;5034242;28;20029;-72
2022/10/04 01:38:46;;;;;;;5.22;1.98;;;;;;;;;;5034477;28;20371;-72
2022/10/04 01:41:13;;;;;;;3.97;1.85;;;;;;;;;;5033019;28;20482;-72
2022/10/04 01:43:42;;;;;;;3.42;1.92;;;;;;;;;;5034409;28;20029;-72
2022/10/04 01:46:11;;;;;;;5.00;2.17;;;;;;;;;;5034332;28;20025;-72
2022/10/04 01:48:40;;;;;;;8.00;2.60;;;;;;;;;;5033614;28;20485;-72
2022/10/04 01:51:18;;;;;;;5.82;2.28;;;;;;;;;;5034498;28;20029;-71
2022/10/04 01:53:49;;;;;;;9.35;2.60;;;;;;;;;;5033946;28;20048;-72
2022/10/04 01:56:19;;;;;;;3.50;2.00;;;;;;;;;;5033826;28;20021;-71
2022/10/04 01:58:48;;;;;;;6.22;1.70;;;;;;;;;;5033755;28;20021;-71
2022/10/04 02:01:14;;;;;;;2.38;1.55;;;;;;;;;;5033928;28;20029;-72
2022/10/04 02:04:01;;;;;;;7.53;2.17;;;;;;;;;;5034136;28;20017;-72
2022/10/04 02:06:28;;;;;;;3.40;2.00;;;;;;;;;;5033242;28;20021;-72
2022/10/04 02:08:56;;;;;;;2.58;1.98;;;;;;;;;;5033909;28;20045;-72
2022/10/04 02:11:23;;;;;;;3.03;1.58;;;;;;;;;;5033706;28;20020;-72
2022/10/04 02:13:51;;;;;;;3.45;1.50;;;;;;;;;;5033540;28;20060;-72
2022/10/04 02:16:18;;;;;;;1.75;1.40;;;;;;;;;;5033417;28;20029;-72
2022/10/04 02:18:45;;;;;;;1.83;1.25;;;;;;;;;;5033863;28;20025;-72
2022/10/04 02:21:12;;;;;;;4.22;1.40;;;;;;;;;;5033988;28;20020;-72
2022/10/04 02:23:40;;;;;;;5.47;1.40;;;;;;;;;;5033792;28;20033;-72
2022/10/04 02:26:07;;;;;;;3.03;1.20;;;;;;;;;;5033458;28;20029;-72
2022/10/04 02:28:34;;;;;;;1.88;1.38;;;;;;;;;;5033332;28;20059;-72
2022/10/04 02:33:48;;;;;;;4.00;1.73;;;;;;;;;;5033219;28;20041;-72
2022/10/04 02:36:15;;;;;;;2.95;1.13;;;;;;;;;;5033452;28;20017;-72
2022/10/04 02:38:57;;;;;;;4.07;1.15;;;;;;;;;;5033283;28;20393;-72
2022/10/04 02:41:24;;;;;;;1.20;1.10;;;;;;;;;;5033156;28;20032;-72
2022/10/04 02:43:50;;;;;;;2.35;1.17;;;;;;;;;;5033241;28;20031;-72
2022/10/04 02:46:16;;;;;;;5.28;1.10;;;;;;;;;;5032905;28;20026;-72
2022/10/04 02:48:43;;;;;;;1.48;1.30;;;;;;;;;;5033358;28;20067;-72
2022/10/04 02:51:16;;;;;;;7.45;1.25;;;;;;;;;;5033119;28;20016;-72
2022/10/04 02:53:48;;;;;;;4.22;1.40;;;;;;;;;;5031668;28;20037;-72
2022/10/04 02:56:14;;;;;;;1.30;1.20;;;;;;;;;;5033040;28;20023;-72
2022/10/04 02:58:41;;;;;;;1.10;1.00;;;;;;;;;;5032808;28;20300;-72
2022/10/04 03:01:15;;;;;;;2.35;1.20;;;;;;;;;;5032471;28;20025;-72
2022/10/04 03:03:44;;;;;;;5.75;1.30;;;;;;;;;;5032874;28;20367;-72
2022/10/04 03:06:14;;;;;;;3.90;1.13;;;;;;;;;;5032948;28;20036;-72
2022/10/04 03:08:43;;;;;;;2.30;1.20;;;;;;;;;;5032659;28;20027;-72
2022/10/04 03:11:10;;;;;;;5.18;1.25;;;;;;;;;;5032668;28;20424;-72
2022/10/04 03:13:41;;;;;;;3.03;1.40;;;;;;;;;;5032456;28;20532;-72
2022/10/04 03:16:07;;;;;;;3.45;1.38;;;;;;;;;;5032321;28;20029;-72
2022/10/04 03:18:36;;;;;;;2.08;1.27;;;;;;;;;;5032163;28;20033;-72
2022/10/04 03:21:04;;;;;;;1.35;1.23;;;;;;;;;;5032901;28;20025;-72
2022/10/04 03:23:32;;;;;;;6.63;1.10;;;;;;;;;;5032590;28;20035;-72
2022/10/04 03:26:19;;;;;;;5.68;1.35;;;;;;;;;;5032477;28;20394;-72
2022/10/04 03:28:46;;;;;;;1.50;1.40;;;;;;;;;;5032156;28;20026;-72
2022/10/04 03:31:13;;;;;;;2.53;1.50;;;;;;;;;;5032472;28;20017;-72
2022/10/04 03:33:40;;;;;;;3.78;1.38;;;;;;;;;;5032465;28;20047;-72
2022/10/04 03:36:07;;;;;;;2.35;1.25;;;;;;;;;;5031225;28;20022;-72
2022/10/04 03:38:34;;;;;;;2.33;1.40;;;;;;;;;;5032373;28;20025;-72
2022/10/04 03:41:01;;;;;;;6.65;1.33;;;;;;;;;;5032301;28;20021;-72
2022/10/04 03:43:33;;;;;;;2.70;1.15;;;;;;;;;;5032101;28;20036;-72
2022/10/04 03:46:00;;;;;;;2.05;1.33;;;;;;;;;;5032207;28;20022;-72
2022/10/04 03:48:29;;;;;;;2.22;1.33;;;;;;;;;;5032545;28;20039;-72
2022/10/04 03:50:56;;;;;;;1.42;1.08;;;;;;;;;;5032335;28;20048;-72
2022/10/04 03:53:42;;;;;;;4.03;2.30;;;;;;;;;;5032042;28;20470;-72
2022/10/04 03:56:12;;;;;;;4.63;1.30;;;;;;;;;;5032462;28;20033;-72
2022/10/04 03:58:39;;;;;;;1.63;1.15;;;;;;;;;;5031833;28;20397;-72
2022/10/04 04:01:14;;;;;;;3.63;1.35;;;;;;;;;;5032146;28;20086;-72
2022/10/04 04:03:54;;;;;;;3.35;1.40;;;;;;;;;;5032449;28;20509;-72
2022/10/04 04:06:21;;;;;;;2.72;1.25;;;;;;;;;;5032022;28;20025;-72
2022/10/04 04:08:51;;;;;;;3.72;1.30;;;;;;;;;;5032088;28;20025;-72
2022/10/04 04:11:21;;;;;;;2.55;1.33;;;;;;;;;;5031996;28;20508;-72
2022/10/04 04:13:48;;;;;;;3.35;1.13;;;;;;;;;;5031389;28;20426;-72
2022/10/04 04:16:14;;;;;;;2.72;1.08;;;;;;;;;;5032069;28;20104;-72
2022/10/04 04:18:43;;;;;;;1.13;1.02;;;;;;;;;;5032036;28;20029;-72
2022/10/04 04:21:11;;;;;;;3.35;1.33;;;;;;;;;;5031987;28;20017;-72
2022/10/04 04:23:41;;;;;;;1.70;1.27;;;;;;;;;;5032145;28;20038;-72
2022/10/04 04:26:14;;;;;;;2.55;1.40;;;;;;;;;;5031804;28;20043;-72
2022/10/04 04:29:16;;;;;;;4.28;1.38;;;;;;;;;;5031715;28;20029;-72
2022/10/04 04:31:48;;;;;;;6.90;2.03;;;;;;;;;;5013863;28;20036;-72
2022/10/04 04:34:21;;;;;;;13.63;3.00;;;;;;;;;;5013915;28;20030;-72
2022/10/04 04:36:47;;;;;;;7.63;3.78;;;;;;;;;;5013909;28;20030;-72
2022/10/04 04:39:33;;;;;;;8.60;3.53;;;;;;;;;;5013548;28;20422;-72
2022/10/04 04:42:01;;;;;;;9.63;3.30;;;;;;;;;;5013198;28;20522;-72
2022/10/04 04:44:28;;;;;;;4.50;2.38;;;;;;;;;;5013484;28;20062;-72
2022/10/04 04:46:59;;;;;;;3.38;2.13;;;;;;;;;;5013230;28;20042;-72
2022/10/04 04:49:28;;;;;;;7.20;1.83;;;;;;;;;;5013256;28;20034;-72
2022/10/04 04:51:56;;;;;;;3.17;1.58;;;;;;;;;;5013428;28;20040;-72
2022/10/04 04:54:24;;;;;;;5.97;1.35;;;;;;;;;;5013312;28;20510;-72
2022/10/04 04:56:51;;;;;;;3.30;1.40;;;;;;;;;;5013129;28;20026;-72
2022/10/04 04:59:18;;;;;;;1.83;1.30;;;;;;;;;;5013124;28;20513;-72
2022/10/04 05:01:45;;;;;;;3.38;1.48;;;;;;;;;;5013106;28;20052;-72
2022/10/04 05:04:12;;;;;;;1.70;1.25;;;;;;;;;;5013257;28;20045;-72
2022/10/04 05:06:49;;;;;;;1.60;1.30;;;;;;;;;;5032709;28;20033;-72
2022/10/04 05:09:33;;;;;;;13.57;1.60;;;;;;;;;;5034926;28;20397;-72
2022/10/04 05:12:14;;;;;;;3.30;2.30;;;;;;;;;;5034450;28;20045;-72
2022/10/04 05:14:45;;;;;;;5.35;2.92;;;;;;;;;;5050418;28;20040;-72
2022/10/04 05:17:18;;;;;;;5.95;3.28;;;;;;;;;;5034950;28;20026;-72
2022/10/04 05:19:45;;;;;;;7.38;3.28;;;;;;;;;;5035070;28;20029;-73
2022/10/04 05:22:13;;;;;;;5.70;3.50;;;;;;;;;;5034832;28;20028;-72
2022/10/04 05:24:40;;;;;;;3.85;2.55;;;;;;;;;;5034264;28;20037;-72
2022/10/04 05:27:17;;;;;;;3.30;1.90;;;;;;;;;;5034717;28;20021;-72
2022/10/04 05:29:52;;;;;;;9.15;4.07;;;;;;;;;;5034402;28;20494;-72
2022/10/04 05:32:33;;;;;;;8.70;4.20;;;;;;;;;;5034404;28;20027;-72
2022/10/04 05:35:00;;;;;;;3.88;2.65;;;;;;;;;;5034478;28;20030;-72
2022/10/04 05:37:44;;;;;;;4.30;1.90;;;;;;;;;;5034492;28;20035;-72
2022/10/04 05:40:14;;;;;;;5.40;1.77;;;;;;;;;;5034036;28;20032;-72
2022/10/04 05:42:45;;;;;;;4.13;1.60;;;;;;;;;;5032693;28;20033;-72
2022/10/04 05:45:17;;;;;;;2.30;1.70;;;;;;;;;;5034432;28;20017;-72
2022/10/04 05:47:43;;;;;;;3.60;1.50;;;;;;;;;;5034205;28;20014;-72
2022/10/04 05:50:15;;;;;;;3.90;1.95;;;;;;;;;;5034266;28;20028;-72
2022/10/04 05:52:42;;;;;;;1.75;1.50;;;;;;;;;;5033959;28;20537;-72
2022/10/04 05:55:15;;;;;;;2.70;1.70;;;;;;;;;;5033643;28;20033;-72
2022/10/04 05:57:59;;;;;;;5.22;1.60;;;;;;;;;;5033967;28;20036;-72
2022/10/04 06:00:38;;;;;;;4.43;1.38;;;;;;;;;;5033761;28;20029;-72
2022/10/04 06:03:11;;;;;;;2.53;1.63;;;;;;;;;;5033600;28;20043;-72
2022/10/04 06:05:56;;;;;;;2.53;1.23;;;;;;;;;;5033761;28;20020;-73
2022/10/04 06:08:25;;;;;;;4.43;2.13;;;;;;;;;;5033584;28;20033;-72
2022/10/04 06:10:51;;;;;;;4.57;2.40;;;;;;;;;;5033606;28;20026;-72
2022/10/04 06:13:29;;;;;;;5.13;2.70;;;;;;;;;;5033432;28;20048;-72
2022/10/04 06:16:03;;;;;;;3.30;1.90;;;;;;;;;;5028700;28;20036;-72
2022/10/04 06:18:35;;;;;;;2.95;1.85;;;;;;;;;;5032512;28;20368;-72
2022/10/04 06:21:17;;;;;;;4.05;1.90;;;;;;;;;;5030754;28;20037;-72
2022/10/04 06:23:50;;;;;;;2.45;1.45;;;;;;;;;;5026129;28;20035;-72
2022/10/04 06:26:24;;;;;;;3.40;1.63;;;;;;;;;;5030842;28;20033;-72
2022/10/04 06:28:59;;;;;;;9.35;2.13;;;;;;;;;;5023928;28;20506;-72
2022/10/04 06:31:48;;;;;;;9.32;2.67;;;;;;;;;;5025922;28;20021;-72
2022/10/04 06:34:27;;;;;;;20.52;2.28;;;;;;;;;;5029143;28;20052;-72
2022/10/04 06:36:53;;;;;;;2.65;1.60;;;;;;;;;;5031762;28;20052;-73
2022/10/04 06:39:19;;;;;;;6.53;1.60;;;;;;;;;;5032758;28;20367;-72
2022/10/04 06:41:58;;;;;;;6.00;1.65;;;;;;;;;;5031720;28;20037;-72
2022/10/04 06:44:24;;;;;;;2.47;1.48;;;;;;;;;;5030412;28;20035;-72
2022/10/04 06:46:58;;;;;;;2.67;1.83;;;;;;;;;;5032105;28;20021;-74
2022/10/04 06:49:31;;;;;;;4.75;1.70;;;;;;;;;;5024014;28;20025;-74
2022/10/04 06:52:09;;;;;;;5.57;2.42;;;;;;;;;;5030782;28;20031;-73
2022/10/04 06:54:51;;;;;;;3.05;1.85;;;;;;;;;;5027570;28;20026;-74
2022/10/04 06:57:37;;;;;;;5.63;1.73;;;;;;;;;;5044820;28;20146;-73
2022/10/04 07:00:08;;;;;;;4.55;1.35;;;;;;;;;;5051238;28;20025;-74
2022/10/04 07:02:35;;;;;;;;;;;;;;;;;;5035797;28;20474;-72
2022/10/04 07:05:17;;;;;;;4.60;1.38;;;;;;;;;;5028811;28;19913;-73
2022/10/04 07:07:47;;;;;;;2.53;1.30;;;;;;;;;;5029870;28;20371;-72
2022/10/04 07:10:30;;;;;;;3.38;1.60;;;;;;;;;;5029072;28;20067;-72
2022/10/04 07:13:12;;;;;;;2.70;1.60;;;;;;;;;;5032414;28;20059;-72
2022/10/04 07:15:44;;;;;;;3.97;1.58;;;;;;;;;;5050315;28;20452;-72
2022/10/04 07:18:13;;;;;;;11.82;1.75;;;;;;;;;;5030625;28;20034;-72
2022/10/04 07:20:40;;;;;;;9.20;2.58;;;;;;;;;;5029799;28;20482;-73
2022/10/04 07:23:13;;;;;;;3.33;1.83;;;;;;;;;;5031105;28;20478;-72
2022/10/04 07:25:50;;;;;;;6.00;1.52;;;;;;;;;;5031159;28;20090;-72
2022/10/04 07:31:09;;;;;;;6.95;1.63;;;;;;;;;;5038476;28;20031;-73
2022/10/04 07:33:42;;;;;;;14.82;1.45;;;;;;;;;;5026806;28;20021;-72
2022/10/04 07:36:10;;;;;;;8.48;1.70;;;;;;;;;;5030433;28;20026;-72
2022/10/04 07:38:52;;;;;;;4.20;1.10;;;;;;;;;;5029971;28;20022;-72
2022/10/04 07:41:25;;;;;;;5.15;1.50;;;;;;;;;;5030438;28;20025;-73
2022/10/04 07:43:55;;;;;;;3.83;1.33;;;;;;;;;;5029831;28;20048;-73
2022/10/04 07:46:44;;;;;;;2.22;1.10;;;;;;;;;;5030265;28;20021;-72
2022/10/04 07:49:18;;;;;;;2.72;1.33;;;;;;;;;;5015425;28;20539;-72
2022/10/04 07:51:56;;;;;;;2.30;1.25;;;;;;;;;;5024146;28;20055;-73
2022/10/04 07:54:43;;;;;;;13.73;1.60;;;;;;;;;;5030324;28;20036;-73
2022/10/04 07:57:28;;;;;;;2.50;1.30;;;;;;;;;;5029504;28;20045;-72
2022/10/04 07:59:54;;;;;;;3.80;1.02;;;;;;;;;;5045824;28;20037;-73
2022/10/04 08:02:27;;;;;;;1.75;1.00;;;;;;;;;;5030864;28;20029;-72
2022/10/04 08:04:57;;;;;;;3.22;1.00;;;;;;;;;;5040376;28;20041;-73
2022/10/04 08:07:50;;;;;;;5.97;1.40;;;;;;;;;;5054638;28;20043;-73
2022/10/04 08:10:25;;;;;;;1.77;1.20;;;;;;;;;;5044592;28;20116;-73
2022/10/04 08:13:01;;;;;;;2.22;1.02;;;;;;;;;;5033931;28;20465;-73
2022/10/04 08:15:35;;;;;;;2.25;1.40;;;;;;;;;;5034390;28;20504;-73
2022/10/04 08:18:02;;;;;;;1.20;1.10;;;;;;;;;;5034691;28;20045;-72
2022/10/04 08:20:29;;;;;;;4.13;1.15;;;;;;;;;;5033993;28;20038;-72
2022/10/04 08:23:09;;;;;;;2.03;1.40;;;;;;;;;;5034017;28;20410;-73
2022/10/04 08:25:54;;;;;;;1.33;1.15;;;;;;;;;;5045656;28;20029;-73
2022/10/04 08:31:30;;;;;;;1.90;1.20;;;;;;;;;;5034188;28;20032;-73
2022/10/04 08:34:04;;;;;;;2.10;1.20;;;;;;;;;;5033085;28;20049;-73
2022/10/04 08:36:45;;;;;;;12.75;1.60;;;;;;;;;;5033916;28;20389;-73
2022/10/04 08:39:30;;;;;;;6.78;1.23;;;;;;;;;;5046090;28;20024;-73
2022/10/04 08:42:08;;;;;;;1.75;1.23;;;;;;;;;;5053615;28;20045;-73
2022/10/04 08:44:52;;;;;;;1.35;1.00;;;;;;;;;;5041552;28;20059;-73
2022/10/04 08:47:31;;;;;;;8.25;0.95;;;;;;;;;;5033222;28;20394;-73
2022/10/04 08:50:00;;;;;;;3.22;1.10;;;;;;;;;;5033896;28;20022;-73
2022/10/04 08:52:49;;;;;;;2.30;0.97;;;;;;;;;;5033736;28;20025;-73
2022/10/04 08:55:15;;;;;;;1.98;0.93;;;;;;;;;;5037960;28;20037;-74
2022/10/04 08:58:03;;;;;;;2.28;0.98;;;;;;;;;;5053475;28;20043;-73
2022/10/04 09:00:46;;;;;;;6.68;1.20;;;;;;;;;;5053499;28;20029;-74
2022/10/04 09:03:28;;;;;;;3.17;1.20;;;;;;;;;;5053587;28;20013;-73
2022/10/04 09:06:21;;;;;;;1.60;1.10;;;;;;;;;;5052943;28;20555;-74
2022/10/04 09:08:47;;;;;;;5.90;1.20;;;;;;;;;;5011396;28;20040;-72
2022/10/04 09:11:20;;;;;;;8.43;1.42;;;;;;;;;;5007119;28;20040;-74
2022/10/04 09:13:55;;;;;;;5.80;1.10;;;;;;;;;;4991554;28;20062;-73
2022/10/04 09:16:24;;;;;;;4.00;1.10;;;;;;;;;;4990430;28;20442;-73
2022/10/04 09:18:52;;;;;;;2.67;1.30;;;;;;;;;;4991029;28;20550;-73
2022/10/04 09:21:27;;;;;;;4.00;1.00;;;;;;;;;;4991488;28;20484;-73
2022/10/04 09:23:56;;;;;;;5.88;1.20;;;;;;;;;;4991547;28;20038;-73
2022/10/04 09:26:23;;;;;;;5.47;1.35;;;;;;;;;;4991512;28;20553;-73
2022/10/04 09:29:08;;;;;;;4.10;1.48;;;;;;;;;;4994791;28;20030;-73
2022/10/04 09:31:37;;;;;;;5.30;1.20;;;;;;;;;;4989503;28;20499;-73
2022/10/04 09:34:13;;;;;;;4.53;1.10;;;;;;;;;;4990935;28;20529;-73
2022/10/04 09:37:15;;;;;;;3.60;1.00;;;;;;;;;;4991331;28;20032;-74
2022/10/04 09:39:47;;;;;;;3.90;1.20;;;;;;;;;;4914685;29;20050;-72
2022/10/04 09:42:22;;;;;;;3.50;1.00;;;;;;;;;;4914552;29;20042;-73
2022/10/04 09:44:49;;;;;;;1.65;1.05;;;;;;;;;;4917048;29;20040;-73
2022/10/04 09:47:30;;;;;;;1.88;1.20;;;;;;;;;;4932020;29;20043;-73
2022/10/04 09:50:16;;;;;;;4.25;1.10;;;;;;;;;;4932852;29;20692;-73
2022/10/04 09:53:01;;;;;;;2.08;1.00;;;;;;;;;;4932634;29;20476;-73
2022/10/04 09:55:28;;;;;;;1.52;0.82;;;;;;;;;;4932831;29;20904;-73
2022/10/04 09:58:13;;;;;;;1.77;1.08;;;;;;;;;;4932609;29;20034;-73
2022/10/04 10:00:57;;;;;;;1.70;1.05;;;;;;;;;;4932413;29;20040;-73
2022/10/04 10:03:23;;;;;;;3.33;1.20;;;;;;;;;;4930478;29;20039;-73
2022/10/04 10:06:08;;;;;;;4.32;1.40;;;;;;;;;;4932875;29;20504;-73
2022/10/04 10:08:52;;;;;;;7.55;1.20;;;;;;;;;;4932133;29;20030;-72
2022/10/04 10:14:28;;;;;;;2.35;1.10;;;;;;;;;;5009619;28;20049;-72
2022/10/04 10:17:14;;;;;;;3.15;0.98;;;;;;;;;;5032306;28;20021;-73
2022/10/04 10:19:47;;;;;;;4.18;1.10;;;;;;;;;;5031899;28;20035;-74
2022/10/04 10:22:16;;;;;;;4.57;1.30;;;;;;;;;;5031881;28;20031;-73
2022/10/04 10:24:42;;;;;;;2.83;1.00;;;;;;;;;;5031957;28;20401;-73
2022/10/04 10:27:23;;;;;;;1.80;1.20;;;;;;;;;;5047447;28;20039;-73
2022/10/04 10:30:03;;;;;;;2.53;1.10;;;;;;;;;;5031711;28;20013;-73
2022/10/04 10:32:49;;;;;;;6.47;1.25;;;;;;;;;;5032134;28;20024;-73
2022/10/04 10:35:15;;;;;;;1.38;0.98;;;;;;;;;;5031938;28;20045;-74
2022/10/04 10:38:00;;;;;;;4.47;1.00;;;;;;;;;;5032027;28;20407;-74
2022/10/04 10:40:43;;;;;;;2.15;1.20;;;;;;;;;;5032009;28;20023;-73
2022/10/04 10:43:11;;;;;;;1.92;0.95;;;;;;;;;;5031774;28;20355;-74
2022/10/04 10:45:42;;;;;;;3.83;1.30;;;;;;;;;;5031496;28;20029;-74
2022/10/04 10:48:16;;;;;;;4.45;1.17;;;;;;;;;;5031901;28;20017;-73
2022/10/04 10:50:57;;;;;;;3.47;1.13;;;;;;;;;;5031434;28;20881;-73
2022/10/04 10:53:24;;;;;;;3.83;1.15;;;;;;;;;;5031447;28;20038;-74
2022/10/04 10:55:53;;;;;;;3.22;0.88;;;;;;;;;;5031761;28;20025;-74
2022/10/04 10:58:28;;;;;;;3.83;1.10;;;;;;;;;;5031236;28;20139;-73
2022/10/04 11:01:01;;;;;;;0.95;0.85;;;;;;;;;;5030332;28;20021;-73
2022/10/04 11:03:29;;;;;;;7.72;1.20;;;;;;;;;;5031545;28;20498;-73
2022/10/04 11:06:14;;;;;;;2.47;1.10;;;;;;;;;;5031508;28;20029;-73
2022/10/04 11:08:59;;;;;;;1.85;1.00;;;;;;;;;;5011887;28;20030;-73
2022/10/04 11:11:40;;;;;;;2.17;1.10;;;;;;;;;;5030081;28;20486;-73
2022/10/04 11:14:10;;;;;;;6.78;1.33;;;;;;;;;;5030899;28;20045;-73
2022/10/04 11:16:45;;;;;;;2.90;0.80;;;;;;;;;;5031564;28;20478;-73
2022/10/04 11:19:31;;;;;;;2.25;0.95;;;;;;;;;;5031328;28;20021;-73
2022/10/04 11:22:12;;;;;;;1.58;0.85;;;;;;;;;;5031584;28;20025;-73
2022/10/04 11:24:58;;;;;;;2.13;0.85;;;;;;;;;;5030347;28;20029;-74
2022/10/04 11:27:27;;;;;;;1.48;0.80;;;;;;;;;;5031028;28;20073;-75
2022/10/04 11:30:14;;;;;;;3.10;1.08;;;;;;;;;;5031113;28;20026;-73
2022/10/04 11:32:44;;;;;;;3.60;0.60;;;;;;;;;;5030075;28;20031;-74
2022/10/04 11:35:29;;;;;;;1.00;0.70;;;;;;;;;;5027164;28;20387;-74
2022/10/04 11:38:06;;;;;;;2.60;0.77;;;;;;;;;;5011687;28;20036;-74
2022/10/04 11:40:54;;;;;;;1.45;0.70;;;;;;;;;;5010957;28;20374;-74
2022/10/04 11:43:59;;;;;;;1.52;0.80;;;;;;;;;;5024336;28;20013;-74
2022/10/04 11:46:34;;;;;;;1.67;0.88;;;;;;;;;;5024099;28;20036;-74
2022/10/04 11:49:01;;;;;;;2.30;0.80;;;;;;;;;;5033700;28;20516;-74
2022/10/04 11:51:30;;;;;;;0.88;0.60;;;;;;;;;;5030326;28;20513;-74
2022/10/04 11:54:08;;;;;;;1.35;0.80;;;;;;;;;;5026051;28;20383;-75
2022/10/04 11:57:07;;;;;;;1.40;0.60;;;;;;;;;;5028222;28;20040;-75
2022/10/04 11:59:43;;;;;;;1.35;0.70;;;;;;;;;;5009712;28;20040;-74
2022/10/04 12:02:15;;;;;;;2.92;0.65;;;;;;;;;;5009306;28;20044;-74
2022/10/04 12:04:57;;;;;;;1.48;0.80;;;;;;;;;;5025017;28;20033;-75
2022/10/04 12:07:25;;;;;;;2.03;0.75;;;;;;;;;;5028276;28;20433;-75
2022/10/04 12:09:54;;;;;;;1.67;0.73;;;;;;;;;;5028602;28;20047;-75
2022/10/04 12:12:40;;;;;;;1.02;0.80;;;;;;;;;;5028370;28;20042;-75
2022/10/04 12:15:26;;;;;;;1.17;0.80;;;;;;;;;;4969346;28;20051;-75
2022/10/04 12:18:05;;;;;;;3.90;0.80;;;;;;;;;;4985589;28;20037;-74
2022/10/04 12:20:52;;;;;;;1.75;0.70;;;;;;;;;;4988689;28;20129;-75
2022/10/04 12:23:19;;;;;;;3.88;1.00;;;;;;;;;;4989132;28;20534;-75
2022/10/04 12:25:47;;;;;;;1.27;0.80;;;;;;;;;;4989035;28;20474;-75
2022/10/04 12:28:17;;;;;;;0.90;0.80;;;;;;;;;;4989423;28;20034;-75
2022/10/04 12:31:02;;;;;;;1.05;0.80;;;;;;;;;;4989376;28;20034;-79
2022/10/04 12:33:33;;;;;;;1.45;0.70;;;;;;;;;;4984543;28;20035;-82
2022/10/04 12:36:12;;;;;;;0.93;0.82;;;;;;;;;;4987637;28;20922;-78
2022/10/04 12:38:57;;;;;;;2.80;0.90;;;;;;;;;;4988794;28;20054;-78
2022/10/04 12:41:43;;;;;;;2.50;0.90;;;;;;;;;;4988178;28;20066;-78
2022/10/04 12:44:19;;;;;;;2.50;1.02;;;;;;;;;;4988606;28;20038;-75
2022/10/04 12:47:05;;;;;;;1.05;0.93;;;;;;;;;;4989575;28;20051;-75
2022/10/04 12:49:53;;;;;;;2.75;1.00;;;;;;;;;;4988065;28;20038;-76
2022/10/04 12:52:26;;;;;;;1.48;1.02;;;;;;;;;;4971940;28;20026;-73
2022/10/04 12:55:09;;;;;;;1.92;1.00;;;;;;;;;;4998763;28;20531;-73
2022/10/04 12:57:44;;;;;;;3.50;0.90;;;;;;;;;;4992157;28;20046;-73
2022/10/04 13:00:16;;;;;;;0.93;0.70;;;;;;;;;;4992266;28;20026;-74
2022/10/04 13:03:01;;;;;;;1.58;0.70;;;;;;;;;;4992377;28;20042;-73
2022/10/04 13:05:40;;;;;;;0.95;0.85;;;;;;;;;;4992274;28;20026;-73
2022/10/04 13:08:16;;;;;;;1.38;1.00;;;;;;;;;;4991643;28;20026;-73
2022/10/04 13:11:00;;;;;;;1.73;1.00;;;;;;;;;;4995847;28;20038;-73
2022/10/04 13:13:27;;;;;;;1.80;1.10;;;;;;;;;;4991725;28;20525;-73
2022/10/04 13:16:04;;;;;;;2.00;1.00;;;;;;;;;;4991775;28;20034;-74
2022/10/04 13:18:49;;;;;;;5.15;1.25;;;;;;;;;;4990842;28;20399;-73
2022/10/04 13:21:35;;;;;;;2.22;0.80;;;;;;;;;;5006758;28;20034;-73
2022/10/04 13:24:20;;;;;;;1.33;0.98;;;;;;;;;;4923836;29;20074;-73
2022/10/04 13:26:54;;;;;;;1.33;0.98;;;;;;;;;;4916914;29;20502;-74
2022/10/04 13:29:20;;;;;;;8.18;0.80;;;;;;;;;;4923962;29;20593;-73
2022/10/04 13:31:47;;;;;;;1.65;1.10;;;;;;;;;;4933848;29;20032;-73
2022/10/04 13:34:13;;;;;;;1.17;0.90;;;;;;;;;;4934168;29;20595;-73
2022/10/04 13:36:58;;;;;;;1.40;1.10;;;;;;;;;;4936322;29;20037;-73
2022/10/04 13:39:27;;;;;;;2.63;1.10;;;;;;;;;;4951354;29;20463;-73
2022/10/04 13:41:56;;;;;;;3.97;1.00;;;;;;;;;;4952313;29;20041;-73
2022/10/04 13:44:23;;;;;;;;;;;;;;;;;;4957567;28;20065;-73
2022/10/04 13:47:04;;;;;;;1.25;0.85;;;;;;;;;;4972438;28;19948;-73
2022/10/04 13:49:48;;;;;;;2.13;1.08;;;;;;;;;;4954315;28;20484;-73
2022/10/04 13:57:51;;;;;;;1.60;0.70;;;;;;;;;;4951564;29;20023;-73
2022/10/04 14:00:35;;;;;;;6.53;0.98;;;;;;;;;;4963568;28;20049;-73
2022/10/04 14:03:09;;;;;;;2.38;0.80;;;;;;;;;;5033400;28;20075;-73
2022/10/04 14:05:51;;;;;;;2.40;0.80;;;;;;;;;;5031492;28;20029;-73
2022/10/04 14:08:18;;;;;;;2.05;0.70;;;;;;;;;;5032389;28;20381;-73
2022/10/04 14:11:05;;;;;;;4.47;1.10;;;;;;;;;;5032638;28;20027;-74
2022/10/04 14:13:47;;;;;;;0.70;0.70;;;;;;;;;;5032581;28;20060;-73
2022/10/04 14:16:33;;;;;;;3.45;0.80;;;;;;;;;;5032901;28;20036;-73
2022/10/04 14:18:59;;;;;;;0.68;0.68;;;;;;;;;;5031098;28;20024;-73
2022/10/04 14:21:35;;;;;;;2.22;0.82;;;;;;;;;;5027116;28;20033;-73
2022/10/04 14:24:11;;;;;;;2.75;1.00;;;;;;;;;;5029881;28;20041;-74
2022/10/04 14:26:56;;;;;;;3.53;0.85;;;;;;;;;;5029664;28;20024;-73
2022/10/04 14:29:28;;;;;;;1.35;0.63;;;;;;;;;;5038535;28;20035;-72
2022/10/04 14:32:13;;;;;;;1.55;0.80;;;;;;;;;;5032708;28;20034;-73
2022/10/04 14:34:55;;;;;;;0.60;0.60;;;;;;;;;;5032136;28;20025;-73
2022/10/04 14:37:23;;;;;;;1.15;0.65;;;;;;;;;;5031739;28;20494;-73
2022/10/04 14:40:08;;;;;;;3.50;0.80;;;;;;;;;;5031520;28;20475;-73
2022/10/04 14:42:34;;;;;;;2.15;0.90;;;;;;;;;;5032244;28;20018;-73
2022/10/04 14:45:13;;;;;;;2.88;0.82;;;;;;;;;;5032379;28;20037;-73
2022/10/04 14:47:48;;;;;;;1.20;0.90;;;;;;;;;;5031576;28;20076;-73
2022/10/04 14:50:32;;;;;;;1.85;0.80;;;;;;;;;;5031321;28;20040;-73
2022/10/04 14:53:10;;;;;;;4.40;1.08;;;;;;;;;;5031048;28;20033;-73
2022/10/04 14:55:37;;;;;;;2.40;0.75;;;;;;;;;;5031596;28;20018;-72
2022/10/04 14:58:09;;;;;;;0.80;0.55;;;;;;;;;;5031215;28;20025;-74
2022/10/04 15:00:54;;;;;;;4.40;0.75;;;;;;;;;;5031145;28;20077;-75
2022/10/04 15:03:35;;;;;;;1.77;0.65;;;;;;;;;;5031449;28;20022;-74
2022/10/04 15:06:07;;;;;;;2.15;0.80;;;;;;;;;;5027621;28;20029;-74
2022/10/04 15:08:46;;;;;;;1.35;0.80;;;;;;;;;;5027865;28;20043;-75
2022/10/04 15:11:15;;;;;;;1.52;0.68;;;;;;;;;;5034179;28;20021;-75
2022/10/04 15:14:00;;;;;;;0.60;0.50;;;;;;;;;;5029299;28;20049;-75
2022/10/04 15:16:35;;;;;;;0.70;0.60;;;;;;;;;;5030335;28;20022;-74
2022/10/04 15:19:11;;;;;;;0.75;0.55;;;;;;;;;;5029570;28;20039;-75
2022/10/04 15:21:56;;;;;;;1.08;0.57;;;;;;;;;;5031383;28;20494;-75
2022/10/04 15:24:26;;;;;;;1.90;0.50;;;;;;;;;;5031766;28;20037;-74
2022/10/04 15:26:55;;;;;;;2.10;0.50;;;;;;;;;;5031593;28;20021;-74
2022/10/04 15:29:27;;;;;;;0.95;0.57;;;;;;;;;;5031171;28;20184;-75
2022/10/04 15:31:53;;;;;;;1.05;0.70;;;;;;;;;;5029849;28;20036;-75
2022/10/04 15:34:26;;;;;;;1.08;0.70;;;;;;;;;;5030300;28;20032;-75
2022/10/04 15:37:00;;;;;;;0.98;0.60;;;;;;;;;;5031291;28;20037;-73
2022/10/04 15:39:49;;;;;;;0.65;0.52;;;;;;;;;;5031094;28;20493;-74
2022/10/04 15:42:28;;;;;;;0.57;0.50;;;;;;;;;;5029068;28;20044;-74
2022/10/04 15:45:15;;;;;;;1.42;0.50;;;;;;;;;;5013225;28;20045;-74